Time;durP1;ratioP1;P1;durP2;ratioP2;P2;SDS_P1;SDS_P2;PMS_P1;PMS_P2;Temp;Humidity;BMP_temperature;BMP_pressure;BME280_temperature;BME280_humidity;BME280_pressure;Samples;Min_cycle;Max_cycle;Signal;HPM_P1;HPM_P2
2022/07/13 00:01:10;;;;;;;3.97;2.50;;;18.50;85.80;;;;;;5051294;28;20228;-88
2022/07/13 00:03:36;;;;;;;8.10;2.70;;;18.50;86.00;;;;;;5035888;28;20164;-88
2022/07/13 00:06:02;;;;;;;3.60;2.65;;;18.50;86.10;;;;;;5051176;28;20712;-88
2022/07/13 00:08:27;;;;;;;5.90;3.03;;;18.40;86.20;;;;;;5051265;28;20259;-88
2022/07/13 00:10:53;;;;;;;5.57;2.90;;;18.40;86.30;;;;;;5051094;28;20183;-88
2022/07/13 00:13:19;;;;;;;6.18;2.58;;;18.30;86.40;;;;;;5050938;28;20223;-88
2022/07/13 00:15:44;;;;;;;2.72;2.50;;;18.30;86.60;;;;;;5034381;28;20230;-88
2022/07/13 00:18:10;;;;;;;4.22;2.80;;;18.20;86.90;;;;;;5050904;28;20176;-88
2022/07/13 00:20:36;;;;;;;4.03;2.67;;;18.30;86.80;;;;;;5034269;28;20201;-88
2022/07/13 00:23:01;;;;;;;3.22;2.92;;;18.40;86.10;;;;;;5051021;28;20204;-88
2022/07/13 00:25:27;;;;;;;3.88;3.00;;;18.60;85.20;;;;;;5035687;28;20176;-88
2022/07/13 00:27:52;;;;;;;3.78;2.45;;;18.60;84.90;;;;;;5035360;28;20223;-87
2022/07/13 00:30:18;;;;;;;6.13;3.00;;;18.50;85.50;;;;;;5035564;28;20178;-88
2022/07/13 00:32:43;;;;;;;9.30;2.83;;;18.40;85.90;;;;;;5050703;28;20200;-88
2022/07/13 00:35:09;;;;;;;5.13;2.60;;;18.40;85.90;;;;;;5034038;28;20682;-88
2022/07/13 00:37:35;;;;;;;3.75;3.00;;;18.30;85.90;;;;;;5050887;28;20181;-88
2022/07/13 00:40:00;;;;;;;4.05;2.78;;;18.30;86.20;;;;;;5034981;28;20212;-87
2022/07/13 00:42:26;;;;;;;5.53;3.13;;;18.40;85.90;;;;;;5033789;28;20300;-87
2022/07/13 00:44:51;;;;;;;9.05;3.20;;;18.30;86.10;;;;;;5050489;28;20176;-88
2022/07/13 00:47:17;;;;;;;7.38;3.30;;;18.30;86.60;;;;;;5034276;28;20177;-87
2022/07/13 00:49:43;;;;;;;6.82;3.00;;;18.20;86.80;;;;;;5035028;28;20244;-87
2022/07/13 00:52:10;;;;;;;7.57;3.20;;;18.30;86.90;;;;;;5034899;28;20212;-88
2022/07/13 00:54:39;;;;;;;10.27;3.10;;;18.30;86.90;;;;;;5033826;28;20183;-88
2022/07/13 00:57:08;;;;;;;9.70;3.30;;;18.30;86.90;;;;;;5034837;28;20612;-88
2022/07/13 00:59:35;;;;;;;6.20;3.20;;;18.30;86.70;;;;;;5050100;28;20175;-88
2022/07/13 01:02:00;;;;;;;3.10;2.72;;;18.30;86.40;;;;;;5050016;28;20212;-87
2022/07/13 01:04:26;;;;;;;3.83;3.40;;;18.40;86.10;;;;;;5034630;28;20227;-88
2022/07/13 01:06:54;;;;;;;4.68;3.20;;;18.40;86.00;;;;;;5050042;28;20181;-88
2022/07/13 01:09:20;;;;;;;3.78;3.10;;;18.40;86.00;;;;;;5033502;28;20180;-88
2022/07/13 01:11:46;;;;;;;4.45;3.03;;;18.50;85.90;;;;;;5034517;28;20208;-88
2022/07/13 01:14:13;;;;;;;6.00;3.00;;;18.50;85.80;;;;;;5049873;28;20212;-88
2022/07/13 01:16:39;;;;;;;4.85;3.15;;;18.50;85.80;;;;;;5050460;28;20179;-88
2022/07/13 01:19:09;;;;;;;6.05;2.95;;;18.40;86.00;;;;;;5034405;28;20181;-88
2022/07/13 01:21:39;;;;;;;3.58;2.75;;;18.40;86.20;;;;;;5049579;28;20216;-88
2022/07/13 01:24:05;;;;;;;4.28;3.13;;;18.50;86.10;;;;;;5033232;28;20198;-88
2022/07/13 01:26:31;;;;;;;3.55;3.05;;;18.50;85.90;;;;;;5033138;28;20192;-88
2022/07/13 01:28:57;;;;;;;4.88;3.40;;;18.60;85.50;;;;;;5049862;28;20177;-88
2022/07/13 01:31:34;;;;;;;6.57;3.08;;;18.50;85.30;;;;;;5049507;28;20246;-87
2022/07/13 01:33:59;;;;;;;4.40;3.17;;;18.50;85.50;;;;;;5034133;28;20157;-87
2022/07/13 01:36:25;;;;;;;11.93;3.10;;;18.30;86.20;;;;;;5032850;28;20320;-87
2022/07/13 01:38:51;;;;;;;2.83;2.63;;;18.20;86.70;;;;;;5032813;28;20268;-87
2022/07/13 01:41:18;;;;;;;5.45;3.00;;;18.20;86.90;;;;;;5033863;28;20702;-88
2022/07/13 01:43:46;;;;;;;3.33;3.03;;;18.20;86.80;;;;;;5032683;28;20177;-88
2022/07/13 01:46:11;;;;;;;5.30;3.03;;;18.30;86.40;;;;;;5049306;28;20173;-87
2022/07/13 01:48:37;;;;;;;3.92;3.00;;;18.40;86.10;;;;;;5033833;28;20180;-88
2022/07/13 01:51:03;;;;;;;7.00;2.95;;;18.40;85.80;;;;;;5033763;28;20179;-88
2022/07/13 01:53:28;;;;;;;3.17;2.70;;;18.40;85.80;;;;;;5049194;28;20268;-88
2022/07/13 01:55:54;;;;;;;4.57;2.88;;;18.40;85.80;;;;;;5049028;28;20552;-88
2022/07/13 01:58:19;;;;;;;4.70;3.03;;;18.40;85.90;;;;;;5049175;28;20187;-87
2022/07/13 02:00:45;;;;;;;4.95;3.13;;;18.40;85.70;;;;;;5033688;28;20192;-87
2022/07/13 02:03:10;;;;;;;7.70;3.22;;;18.40;85.90;;;;;;5049291;28;20243;-88
2022/07/13 02:05:36;;;;;;;6.85;3.03;;;18.30;86.30;;;;;;5049027;28;20235;-88
2022/07/13 02:08:02;;;;;;;5.70;2.90;;;18.20;86.80;;;;;;5032358;28;20223;-88
2022/07/13 02:10:37;;;;;;;8.65;3.13;;;18.20;86.80;;;;;;5048947;28;20188;-88
2022/07/13 02:13:07;;;;;;;5.40;3.50;;;18.30;86.80;;;;;;5033521;28;20196;-88
2022/07/13 02:15:34;;;;;;;4.00;2.95;;;18.30;86.40;;;;;;5032338;28;20207;-88
2022/07/13 02:17:59;;;;;;;6.07;3.17;;;18.40;86.30;;;;;;5049034;28;20226;-87
2022/07/13 02:20:25;;;;;;;4.53;3.22;;;18.30;86.50;;;;;;5048807;28;20560;-88
2022/07/13 02:22:51;;;;;;;9.82;3.47;;;18.20;86.80;;;;;;5033405;28;20196;-87
2022/07/13 02:25:16;;;;;;;10.95;3.72;;;18.30;86.70;;;;;;5048993;28;20588;-87
2022/07/13 02:27:43;;;;;;;6.20;3.45;;;18.20;86.60;;;;;;5033403;28;20548;-88
2022/07/13 02:30:10;;;;;;;6.05;3.38;;;18.30;86.60;;;;;;5048829;28;20176;-87
2022/07/13 02:32:35;;;;;;;4.50;3.70;;;18.30;86.50;;;;;;5033302;28;20197;-88
2022/07/13 02:35:01;;;;;;;9.73;3.47;;;18.30;86.60;;;;;;5048760;28;20177;-88
2022/07/13 02:37:27;;;;;;;8.02;3.58;;;18.30;86.50;;;;;;5032153;28;20230;-88
2022/07/13 02:39:55;;;;;;;12.60;3.10;;;18.30;86.30;;;;;;5033171;28;20678;-88
2022/07/13 02:42:24;;;;;;;9.13;3.00;;;18.40;86.20;;;;;;5048659;28;20193;-87
2022/07/13 02:44:54;;;;;;;7.80;3.30;;;18.30;86.40;;;;;;5033195;28;20165;-87
2022/07/13 02:47:19;;;;;;;6.10;3.35;;;18.30;86.50;;;;;;5031989;28;20524;-88
2022/07/13 02:49:45;;;;;;;4.10;3.00;;;18.30;86.40;;;;;;5033548;28;20175;-88
2022/07/13 02:52:11;;;;;;;4.47;3.10;;;18.40;86.00;;;;;;5033188;28;20196;-88
2022/07/13 02:54:37;;;;;;;4.35;2.97;;;18.40;85.90;;;;;;5033249;28;20215;-88
2022/07/13 02:57:05;;;;;;;4.57;2.95;;;18.40;85.90;;;;;;5049015;28;20180;-88
2022/07/13 02:59:35;;;;;;;5.10;3.25;;;18.30;86.20;;;;;;5033117;28;20551;-88
2022/07/13 03:02:00;;;;;;;5.15;3.33;;;18.30;86.40;;;;;;5032808;28;20313;-88
2022/07/13 03:04:26;;;;;;;3.28;2.55;;;18.30;86.20;;;;;;5033201;28;20326;-88
2022/07/13 03:06:52;;;;;;;6.20;3.08;;;18.30;86.00;;;;;;5033018;28;20173;-88
2022/07/13 03:09:18;;;;;;;6.75;3.03;;;18.30;85.90;;;;;;5032931;28;20177;-88
2022/07/13 03:11:43;;;;;;;4.82;3.05;;;18.30;85.80;;;;;;5035774;28;20682;-88
2022/07/13 03:14:09;;;;;;;5.95;3.00;;;18.30;85.80;;;;;;5036930;28;20169;-88
2022/07/13 03:16:34;;;;;;;5.95;3.35;;;18.40;85.40;;;;;;5035601;28;20646;-88
2022/07/13 03:19:00;;;;;;;5.78;3.13;;;18.40;84.90;;;;;;5052120;28;20177;-88
2022/07/13 03:21:29;;;;;;;7.70;3.17;;;18.50;84.70;;;;;;5036629;28;20577;-88
2022/07/13 03:23:55;;;;;;;5.88;3.30;;;18.50;84.60;;;;;;5052190;28;20183;-88
2022/07/13 03:26:21;;;;;;;5.30;3.10;;;18.50;84.70;;;;;;5036641;28;20246;-88
2022/07/13 03:28:47;;;;;;;3.58;3.10;;;18.50;84.80;;;;;;5035520;28;20651;-88
2022/07/13 03:31:12;;;;;;;4.95;2.97;;;18.50;84.60;;;;;;5036795;28;20254;-88
2022/07/13 03:33:38;;;;;;;9.40;3.53;;;18.50;84.30;;;;;;5035655;28;20192;-87
2022/07/13 03:36:04;;;;;;;4.00;2.78;;;18.50;84.50;;;;;;5051935;28;20200;-88
2022/07/13 03:38:29;;;;;;;8.13;3.63;;;18.40;85.00;;;;;;5051937;28;20235;-88
2022/07/13 03:40:55;;;;;;;3.25;2.97;;;18.30;85.40;;;;;;5035007;28;20666;-88
2022/07/13 03:43:21;;;;;;;4.15;3.17;;;18.30;85.60;;;;;;5051876;28;20177;-88
2022/07/13 03:45:46;;;;;;;3.92;2.88;;;18.30;85.50;;;;;;5051771;28;20180;-88
2022/07/13 03:48:13;;;;;;;5.95;3.33;;;18.30;85.30;;;;;;5035005;28;20180;-88
2022/07/13 03:50:39;;;;;;;4.05;3.42;;;18.40;85.10;;;;;;5036395;28;20226;-88
2022/07/13 03:53:05;;;;;;;6.20;3.50;;;18.40;85.20;;;;;;5035949;28;20224;-89
2022/07/13 03:55:31;;;;;;;6.28;3.55;;;18.40;85.30;;;;;;5051360;28;20211;-88
2022/07/13 03:57:56;;;;;;;5.00;3.20;;;18.40;85.50;;;;;;5034918;28;20704;-88
2022/07/13 04:00:22;;;;;;;3.47;2.78;;;18.40;85.50;;;;;;5051389;28;20212;-88
2022/07/13 04:02:48;;;;;;;3.90;3.20;;;18.40;85.60;;;;;;5051346;28;20670;-88
2022/07/13 04:05:13;;;;;;;10.98;3.35;;;18.40;85.10;;;;;;5035772;28;20294;-88
2022/07/13 04:07:39;;;;;;;4.10;3.30;;;18.50;84.80;;;;;;5036053;28;20164;-88
2022/07/13 04:10:05;;;;;;;5.38;3.83;;;18.50;84.60;;;;;;5051491;28;20271;-89
2022/07/13 04:12:30;;;;;;;5.03;3.08;;;18.60;84.70;;;;;;5035514;28;20201;-88
2022/07/13 04:14:56;;;;;;;5.25;3.10;;;18.60;84.90;;;;;;5051145;28;20184;-88
2022/07/13 04:17:21;;;;;;;4.20;3.00;;;18.60;85.20;;;;;;5034475;28;20550;-88
2022/07/13 04:19:47;;;;;;;15.05;3.47;;;18.40;85.80;;;;;;5050977;28;20199;-88
2022/07/13 04:22:12;;;;;;;5.25;3.83;;;18.50;85.80;;;;;;5033139;28;20573;-88
2022/07/13 04:24:38;;;;;;;4.25;3.50;;;18.50;85.90;;;;;;5050924;28;20169;-88
2022/07/13 04:27:03;;;;;;;3.88;2.80;;;18.50;85.80;;;;;;5035379;28;20173;-88
2022/07/13 04:29:29;;;;;;;3.42;2.70;;;18.60;85.30;;;;;;5035678;28;20183;-88
2022/07/13 04:31:54;;;;;;;3.20;2.90;;;18.70;85.00;;;;;;5050705;28;20199;-88
2022/07/13 04:34:20;;;;;;;6.15;3.47;;;18.70;84.80;;;;;;5050672;28;20172;-88
2022/07/13 04:36:45;;;;;;;3.97;3.08;;;18.80;84.40;;;;;;5050740;28;20596;-89
2022/07/13 04:39:13;;;;;;;4.68;2.78;;;18.80;84.10;;;;;;5050554;28;20214;-88
2022/07/13 04:41:38;;;;;;;5.45;3.05;;;18.90;83.40;;;;;;5050646;28;20213;-88
2022/07/13 04:44:04;;;;;;;4.20;2.95;;;18.90;83.40;;;;;;5034430;28;20184;-88
2022/07/13 04:46:29;;;;;;;4.82;2.85;;;18.90;83.80;;;;;;5034242;28;20176;-88
2022/07/13 04:48:55;;;;;;;3.53;2.90;;;18.90;83.90;;;;;;5035566;28;20176;-88
2022/07/13 04:51:20;;;;;;;6.93;3.33;;;18.90;84.00;;;;;;5050892;28;20223;-88
2022/07/13 04:53:46;;;;;;;3.85;3.17;;;18.90;83.60;;;;;;5035290;28;20561;-88
2022/07/13 04:56:12;;;;;;;2.95;2.70;;;18.90;83.50;;;;;;5050483;28;20181;-88
2022/07/13 04:58:38;;;;;;;4.80;2.80;;;19.00;83.50;;;;;;5050421;28;20185;-88
2022/07/13 05:01:06;;;;;;;5.97;2.67;;;19.00;83.30;;;;;;5050359;28;20250;-88
2022/07/13 05:03:36;;;;;;;3.47;2.97;;;19.00;83.60;;;;;;5050325;28;20661;-88
2022/07/13 05:06:02;;;;;;;3.40;2.88;;;19.00;83.70;;;;;;5033756;28;20223;-88
2022/07/13 05:08:28;;;;;;;3.05;2.75;;;19.00;83.70;;;;;;5033620;28;20500;-88
2022/07/13 05:10:53;;;;;;;4.10;2.75;;;19.00;84.00;;;;;;5033418;28;20173;-88
2022/07/13 05:13:19;;;;;;;5.90;3.17;;;19.00;83.90;;;;;;5033705;28;20177;-88
2022/07/13 05:15:45;;;;;;;6.43;2.92;;;19.10;84.10;;;;;;5034704;28;20176;-88
2022/07/13 05:18:12;;;;;;;2.95;2.75;;;19.10;84.10;;;;;;5049834;28;20180;-88
2022/07/13 05:20:37;;;;;;;3.10;2.42;;;19.20;83.90;;;;;;5050187;28;20279;-87
2022/07/13 05:23:04;;;;;;;3.80;2.80;;;19.20;83.50;;;;;;5035058;28;20216;-88
2022/07/13 05:25:29;;;;;;;3.20;2.90;;;19.30;83.10;;;;;;5034719;28;20165;-88
2022/07/13 05:27:55;;;;;;;3.20;2.90;;;19.30;82.80;;;;;;5049660;28;20176;-88
2022/07/13 05:30:21;;;;;;;3.10;2.80;;;19.40;82.90;;;;;;5033302;28;20323;-88
2022/07/13 05:32:47;;;;;;;5.03;3.00;;;19.40;82.50;;;;;;5049777;28;20212;-88
2022/07/13 05:35:13;;;;;;;3.85;3.20;;;19.50;82.80;;;;;;5032793;28;20177;-88
2022/07/13 05:37:38;;;;;;;7.28;2.78;;;19.50;82.80;;;;;;5033050;28;20599;-88
2022/07/13 05:40:05;;;;;;;2.58;2.35;;;19.60;82.60;;;;;;5049277;28;20194;-88
2022/07/13 05:42:30;;;;;;;4.32;3.28;;;19.70;82.30;;;;;;5033912;28;20203;-89
2022/07/13 05:44:56;;;;;;;6.13;3.20;;;19.70;82.00;;;;;;5049734;28;20184;-88
2022/07/13 05:47:22;;;;;;;5.78;3.05;;;19.80;81.70;;;;;;5049557;28;20227;-89
2022/07/13 05:49:47;;;;;;;10.27;3.60;;;19.90;81.40;;;;;;5049862;28;20176;-89
2022/07/13 05:52:13;;;;;;;6.43;2.78;;;20.00;81.00;;;;;;5049440;28;20215;-89
2022/07/13 05:54:38;;;;;;;3.88;2.95;;;20.10;81.20;;;;;;5049343;28;20177;-89
2022/07/13 05:57:04;;;;;;;3.45;3.00;;;20.10;81.10;;;;;;5033858;28;20551;-89
2022/07/13 05:59:29;;;;;;;3.40;2.85;;;20.20;81.00;;;;;;5049190;28;20558;-89
2022/07/13 06:01:55;;;;;;;4.57;3.00;;;20.20;80.30;;;;;;5048937;28;20682;-89
2022/07/13 06:04:21;;;;;;;5.25;3.00;;;20.30;80.50;;;;;;5033767;28;20161;-88
2022/07/13 06:06:47;;;;;;;6.43;3.42;;;20.30;80.60;;;;;;5049851;28;20635;-90
2022/07/13 06:09:13;;;;;;;4.00;2.65;;;20.30;80.00;;;;;;5034099;28;20196;-88
2022/07/13 06:11:39;;;;;;;5.63;2.78;;;20.40;79.90;;;;;;5033525;28;20197;-89
2022/07/13 06:14:06;;;;;;;5.70;2.90;;;20.50;80.20;;;;;;5049132;28;20173;-89
2022/07/13 06:16:31;;;;;;;5.07;2.97;;;20.60;79.90;;;;;;5049226;28;20677;-89
2022/07/13 06:18:57;;;;;;;6.50;3.45;;;20.60;79.40;;;;;;5049037;28;20181;-89
2022/07/13 06:21:22;;;;;;;4.53;3.40;;;20.70;78.90;;;;;;5033916;28;20223;-89
2022/07/13 06:23:48;;;;;;;5.68;3.75;;;20.70;79.10;;;;;;5049016;28;20177;-89
2022/07/13 06:26:14;;;;;;;6.32;3.25;;;20.70;79.40;;;;;;5049358;28;20227;-89
2022/07/13 06:28:39;;;;;;;4.03;3.33;;;20.70;79.00;;;;;;5032451;28;20718;-88
2022/07/13 06:31:05;;;;;;;10.57;3.55;;;20.70;78.90;;;;;;5033309;28;20188;-88
2022/07/13 06:33:30;;;;;;;4.50;3.22;;;20.70;78.90;;;;;;5048976;28;20180;-89
2022/07/13 06:35:56;;;;;;;3.50;3.20;;;20.60;78.60;;;;;;5034326;28;20195;-88
2022/07/13 06:38:21;;;;;;;7.13;3.70;;;20.60;78.60;;;;;;5049578;28;20215;-90
2022/07/13 06:40:47;;;;;;;6.65;4.05;;;20.60;78.60;;;;;;5050352;28;20768;-88
2022/07/13 06:43:14;;;;;;;4.55;3.83;;;20.60;78.10;;;;;;5048922;28;20219;-89
2022/07/13 06:45:39;;;;;;;4.45;4.05;;;20.60;77.30;;;;;;5049766;28;20181;-89
2022/07/13 06:48:05;;;;;;;5.15;3.88;;;20.60;77.00;;;;;;5052934;28;20657;-87
2022/07/13 06:50:31;;;;;;;6.20;3.97;;;20.60;77.10;;;;;;5036121;28;20192;-89
2022/07/13 06:52:56;;;;;;;8.02;4.53;;;20.60;77.20;;;;;;5052613;28;20287;-88
2022/07/13 06:55:22;;;;;;;6.38;3.78;;;20.60;77.00;;;;;;5037473;28;20184;-88
2022/07/13 06:57:48;;;;;;;4.95;3.90;;;20.70;77.10;;;;;;5052513;28;20255;-88
2022/07/13 07:00:14;;;;;;;4.40;4.00;;;20.60;76.80;;;;;;5052584;28;20208;-88
2022/07/13 07:02:40;;;;;;;5.25;3.90;;;20.70;76.30;;;;;;5036914;28;20192;-87
2022/07/13 07:05:09;;;;;;;6.47;3.95;;;20.60;76.30;;;;;;5036973;28;20180;-88
2022/07/13 07:07:34;;;;;;;7.30;4.15;;;20.60;76.40;;;;;;5037028;28;20165;-87
2022/07/13 07:10:00;;;;;;;6.68;4.70;;;20.60;76.70;;;;;;5053421;28;20246;-87
2022/07/13 07:12:25;;;;;;;5.95;4.50;;;20.60;76.50;;;;;;5037189;28;20199;-92
2022/07/13 07:14:51;;;;;;;4.50;4.10;;;20.60;76.70;;;;;;5036221;28;20176;-91
2022/07/13 07:17:17;;;;;;;7.57;4.43;;;20.70;76.80;;;;;;5052199;28;20248;-90
2022/07/13 07:19:44;;;;;;;10.05;4.38;;;20.70;76.30;;;;;;5035542;28;20710;-90
2022/07/13 07:22:10;;;;;;;8.48;4.15;;;20.70;76.30;;;;;;5035255;28;20213;-90
2022/07/13 07:24:35;;;;;;;13.88;4.60;;;20.80;76.70;;;;;;5035343;28;20173;-90
2022/07/13 07:27:02;;;;;;;10.38;4.28;;;20.80;76.20;;;;;;5035700;28;20169;-90
2022/07/13 07:29:28;;;;;;;10.35;5.32;;;20.80;76.40;;;;;;5052103;28;20256;-90
2022/07/13 07:31:53;;;;;;;8.00;4.97;;;20.90;76.20;;;;;;5052061;28;20223;-90
2022/07/13 07:34:19;;;;;;;11.45;5.38;;;20.90;76.10;;;;;;5051923;28;20189;-90
2022/07/13 07:36:44;;;;;;;5.45;4.32;;;20.90;76.40;;;;;;5036349;28;20211;-90
2022/07/13 07:39:11;;;;;;;11.02;5.38;;;21.00;76.50;;;;;;5051813;28;20197;-89
2022/07/13 07:41:37;;;;;;;7.47;4.57;;;21.10;76.10;;;;;;5036303;28;20234;-89
2022/07/13 07:44:03;;;;;;;7.43;4.70;;;21.10;75.20;;;;;;5036653;28;20691;-89
2022/07/13 07:46:28;;;;;;;10.23;5.35;;;21.20;75.50;;;;;;5036367;28;20173;-89
2022/07/13 07:48:55;;;;;;;6.00;5.40;;;21.20;75.50;;;;;;5036166;28;20172;-89
2022/07/13 07:51:21;;;;;;;5.15;4.65;;;21.20;74.90;;;;;;5035993;28;20193;-89
2022/07/13 07:53:46;;;;;;;8.93;5.18;;;21.30;75.30;;;;;;5051462;28;20246;-90
2022/07/13 07:56:12;;;;;;;8.93;5.57;;;21.20;74.40;;;;;;5051402;28;20181;-89
2022/07/13 07:58:38;;;;;;;5.85;4.85;;;21.30;74.30;;;;;;5051476;28;20180;-89
2022/07/13 08:01:04;;;;;;;7.95;5.00;;;21.30;73.80;;;;;;5051291;28;20231;-89
2022/07/13 08:03:30;;;;;;;4.68;4.28;;;21.30;74.30;;;;;;5051275;28;20235;-90
2022/07/13 08:05:57;;;;;;;8.43;5.13;;;21.40;74.10;;;;;;5051191;28;20173;-90
2022/07/13 08:08:23;;;;;;;13.05;5.00;;;21.40;73.60;;;;;;5051159;28;20556;-89
2022/07/13 08:10:48;;;;;;;6.90;4.50;;;21.40;73.20;;;;;;5051332;28;20188;-89
2022/07/13 08:13:14;;;;;;;7.50;4.75;;;21.50;74.20;;;;;;5051278;28;20200;-89
2022/07/13 08:15:39;;;;;;;4.82;4.35;;;21.50;73.90;;;;;;5051264;28;20638;-89
2022/07/13 08:18:09;;;;;;;6.57;4.57;;;21.60;73.50;;;;;;5051687;28;20666;-92
2022/07/13 08:20:35;;;;;;;8.98;4.22;;;21.60;73.20;;;;;;5051343;28;20200;-90
2022/07/13 08:23:00;;;;;;;7.72;5.28;;;21.70;73.50;;;;;;5034213;28;20189;-90
2022/07/13 08:25:26;;;;;;;7.72;5.15;;;21.70;72.80;;;;;;5051022;28;20688;-90
2022/07/13 08:27:51;;;;;;;6.63;5.20;;;21.80;73.10;;;;;;5050909;28;20251;-90
2022/07/13 08:30:18;;;;;;;7.30;5.05;;;21.80;73.40;;;;;;5036297;28;20238;-90
2022/07/13 08:32:43;;;;;;;5.53;5.00;;;21.80;72.20;;;;;;5051011;28;20547;-90
2022/07/13 08:40:41;;;;;;;6.20;5.60;;;22.00;72.10;;;;;;5035946;28;20303;-93
2022/07/13 08:43:07;;;;;;;11.02;6.75;;;22.20;72.40;;;;;;5050809;28;20283;-92
2022/07/13 08:45:33;;;;;;;7.97;6.05;;;22.20;71.80;;;;;;5051530;28;20200;-92
2022/07/13 08:47:59;;;;;;;7.63;6.53;;;22.20;72.00;;;;;;5034613;28;20172;-92
2022/07/13 08:50:27;;;;;;;11.52;6.95;;;22.40;71.80;;;;;;5050709;28;20180;-90
2022/07/13 08:52:53;;;;;;;10.82;6.65;;;22.40;72.30;;;;;;5050666;28;20197;-91
2022/07/13 08:55:20;;;;;;;6.95;6.07;;;22.50;72.10;;;;;;5050473;28;20226;-91
2022/07/13 08:57:46;;;;;;;7.35;6.20;;;22.40;70.90;;;;;;5050435;28;20177;-87
2022/07/13 09:00:12;;;;;;;11.70;9.02;;;22.40;70.90;;;;;;5050463;28;20176;-88
2022/07/13 09:02:38;;;;;;;9.02;6.68;;;22.60;71.80;;;;;;5050774;28;20189;-87
2022/07/13 09:05:07;;;;;;;7.78;6.57;;;22.90;71.60;;;;;;5050491;28;20223;-87
2022/07/13 09:07:34;;;;;;;9.27;5.88;;;23.00;71.10;;;;;;5050302;28;20234;-89
2022/07/13 09:10:04;;;;;;;12.13;5.90;;;23.10;71.30;;;;;;5050058;28;20177;-89
2022/07/13 09:12:30;;;;;;;7.28;6.57;;;23.30;71.20;;;;;;5035628;28;20188;-88
2022/07/13 09:14:59;;;;;;;9.73;6.82;;;23.30;69.00;;;;;;5036254;28;20165;-87
2022/07/13 09:17:36;;;;;;;7.43;6.40;;;23.20;68.10;;;;;;5051461;28;20215;-87
2022/07/13 09:20:15;;;;;;;8.73;6.80;;;23.50;69.50;;;;;;5036229;28;20164;-88
2022/07/13 09:22:55;;;;;;;6.30;5.70;;;23.60;69.40;;;;;;5051150;28;20704;-88
2022/07/13 09:25:33;;;;;;;7.57;6.10;;;23.80;69.50;;;;;;5035435;28;20592;-89
2022/07/13 09:28:10;;;;;;;8.05;6.50;;;24.00;68.60;;;;;;5050110;28;20180;-89
2022/07/13 09:30:40;;;;;;;9.48;6.57;;;24.00;68.00;;;;;;5049773;28;20172;-89
2022/07/13 09:33:06;;;;;;;8.50;6.95;;;23.90;67.90;;;;;;5049354;28;20616;-88
2022/07/13 09:35:51;;;;;;;11.25;6.95;;;24.20;68.10;;;;;;5049858;28;20177;-88
2022/07/13 09:38:28;;;;;;;9.07;7.15;;;24.30;67.10;;;;;;5049573;28;20580;-89
2022/07/13 09:40:53;;;;;;;7.80;6.55;;;24.40;66.00;;;;;;5049509;28;20204;-90
2022/07/13 09:46:09;;;;;;;7.55;6.07;;;24.70;66.50;;;;;;5034316;28;20705;-88
2022/07/13 09:48:38;;;;;;;7.32;6.13;;;25.10;67.40;;;;;;5034161;28;20173;-88
2022/07/13 09:51:05;;;;;;;7.40;6.40;;;25.20;65.70;;;;;;5049266;28;20235;-89
2022/07/13 09:53:33;;;;;;;8.52;7.22;;;25.20;66.00;;;;;;5033951;28;20173;-90
2022/07/13 09:56:01;;;;;;;8.68;6.22;;;25.70;64.80;;;;;;5033741;28;20177;-88
2022/07/13 09:58:32;;;;;;;8.82;7.65;;;25.40;65.50;;;;;;5049221;28;20204;-88
2022/07/13 10:00:58;;;;;;;9.35;7.45;;;25.40;63.80;;;;;;5032494;28;20235;-90
2022/07/13 10:03:30;;;;;;;11.23;6.47;;;25.50;63.50;;;;;;5049098;28;20642;-88
2022/07/13 10:05:57;;;;;;;10.30;7.32;;;25.60;65.40;;;;;;5049212;28;20211;-89
2022/07/13 10:08:23;;;;;;;7.20;6.40;;;25.70;64.60;;;;;;5032510;28;20173;-90
2022/07/13 10:10:50;;;;;;;8.77;6.60;;;26.00;63.70;;;;;;5034377;28;20348;-89
2022/07/13 10:13:17;;;;;;;8.90;7.85;;;26.10;63.10;;;;;;5050369;28;20201;-89
2022/07/13 10:15:43;;;;;;;7.68;6.88;;;26.00;61.40;;;;;;5049884;28;20187;-91
2022/07/13 10:18:12;;;;;;;7.53;6.78;;;26.20;63.30;;;;;;5049299;28;20172;-90
2022/07/13 10:20:42;;;;;;;8.52;6.45;;;26.50;61.80;;;;;;5047850;28;20200;-89
2022/07/13 10:23:09;;;;;;;10.80;7.15;;;26.80;61.60;;;;;;5048764;28;20211;-90
2022/07/13 10:25:42;;;;;;;8.98;7.07;;;26.80;62.50;;;;;;5032216;28;20259;-90
2022/07/13 10:28:09;;;;;;;9.88;7.60;;;26.90;62.80;;;;;;5033416;28;20168;-90
2022/07/13 10:30:35;;;;;;;8.18;6.05;;;26.60;60.20;;;;;;5048723;28;20180;-90
2022/07/13 10:33:25;;;;;;;11.88;6.65;;;26.70;62.30;;;;;;5048678;28;20264;-89
2022/07/13 10:35:52;;;;;;;10.70;5.70;;;27.30;61.30;;;;;;5048703;28;20646;-89
2022/07/13 10:38:20;;;;;;;5.97;5.43;;;27.40;60.10;;;;;;5048626;28;20208;-89
2022/07/13 10:40:46;;;;;;;9.30;5.35;;;27.60;58.40;;;;;;5033312;28;20251;-90
2022/07/13 10:43:13;;;;;;;10.13;5.50;;;26.90;60.90;;;;;;5033511;28;20627;-89
2022/07/13 10:45:42;;;;;;;7.35;4.63;;;27.00;58.90;;;;;;5048680;28;20183;-88
2022/07/13 10:48:17;;;;;;;7.57;5.90;;;26.70;61.20;;;;;;5048519;28;20180;-89
2022/07/13 10:50:48;;;;;;;5.55;5.05;;;27.40;60.10;;;;;;5048583;28;20662;-89
2022/07/13 10:53:18;;;;;;;9.82;4.95;;;28.00;58.30;;;;;;5048459;28;20196;-89
2022/07/13 10:55:50;;;;;;;8.50;4.88;;;28.20;57.10;;;;;;5033525;28;20207;-88
2022/07/13 10:58:31;;;;;;;7.90;5.05;;;28.10;56.70;;;;;;5048610;28;20173;-89
2022/07/13 11:01:18;;;;;;;5.72;4.18;;;28.20;56.60;;;;;;5048342;28;20736;-89
2022/07/13 11:03:47;;;;;;;7.75;4.55;;;28.00;58.50;;;;;;5021710;28;20180;-89
2022/07/13 11:06:20;;;;;;;7.00;5.25;;;28.30;56.60;;;;;;5033027;28;20161;-89
2022/07/13 11:09:06;;;;;;;5.63;4.30;;;27.30;57.80;;;;;;5048330;28;20175;-89
2022/07/13 11:11:32;;;;;;;7.85;4.18;;;27.60;59.70;;;;;;5048236;28;20196;-89
2022/07/13 11:13:57;;;;;;;4.72;3.95;;;28.20;56.50;;;;;;5048199;28;20208;-89
2022/07/13 11:16:45;;;;;;;7.82;5.03;;;28.00;59.80;;;;;;5032908;28;20539;-89
2022/07/13 11:19:11;;;;;;;5.63;4.75;;;27.80;57.40;;;;;;5048267;28;20204;-89
2022/07/13 11:22:08;;;;;;;4.32;3.90;;;27.80;56.00;;;;;;5048079;28;20298;-89
2022/07/13 11:27:48;;;;;;;8.82;4.32;;;28.30;54.70;;;;;;5033590;28;20191;-89
2022/07/13 11:30:16;;;;;;;5.03;3.45;;;28.20;55.00;;;;;;5048224;28;20635;-89
2022/07/13 11:32:43;;;;;;;7.20;4.50;;;28.80;53.00;;;;;;5051095;28;20200;-89
2022/07/13 11:35:08;;;;;;;5.93;4.38;;;29.30;49.20;;;;;;5036522;28;20168;-90
2022/07/13 11:37:35;;;;;;;7.90;4.50;;;28.50;52.00;;;;;;5052567;28;20168;-89
2022/07/13 11:40:01;;;;;;;4.28;3.30;;;29.00;50.20;;;;;;5035237;28;20192;-90
2022/07/13 11:42:27;;;;;;;5.03;3.40;;;29.20;48.70;;;;;;5051862;28;20209;-90
2022/07/13 11:44:53;;;;;;;7.15;4.82;;;29.10;49.90;;;;;;5035235;28;20173;-89
2022/07/13 11:47:19;;;;;;;6.85;3.53;;;29.20;47.60;;;;;;5035393;28;20718;-89
2022/07/13 11:49:49;;;;;;;3.92;3.53;;;28.90;49.80;;;;;;5035510;28;20173;-89
2022/07/13 11:52:25;;;;;;;9.45;3.97;;;29.30;49.90;;;;;;5051982;28;20560;-90
2022/07/13 11:55:11;;;;;;;5.85;3.97;;;29.60;49.20;;;;;;5052161;28;20590;-89
2022/07/13 11:57:37;;;;;;;8.32;3.70;;;29.50;48.40;;;;;;5052355;28;20175;-89
2022/07/13 12:00:08;;;;;;;8.52;3.42;;;29.40;47.40;;;;;;5036397;28;20196;-90
2022/07/13 12:02:36;;;;;;;10.23;4.53;;;29.40;48.50;;;;;;5035035;28;20200;-89
2022/07/13 12:05:02;;;;;;;6.82;4.90;;;29.40;48.00;;;;;;5051482;28;20180;-89
2022/07/13 12:07:31;;;;;;;8.40;4.20;;;29.40;48.50;;;;;;5051346;28;20553;-89
2022/07/13 12:10:02;;;;;;;5.68;4.80;;;29.20;50.20;;;;;;5051481;28;20184;-90
2022/07/13 12:12:31;;;;;;;13.38;4.80;;;29.20;48.10;;;;;;5051373;28;20197;-89
2022/07/13 12:14:58;;;;;;;8.40;5.70;;;28.90;49.60;;;;;;5034562;28;20254;-90
2022/07/13 12:17:25;;;;;;;10.50;6.10;;;29.20;48.40;;;;;;5051458;28;20231;-88
2022/07/13 12:19:51;;;;;;;8.70;6.30;;;28.50;49.50;;;;;;5036093;28;20248;-92
2022/07/13 12:22:23;;;;;;;6.13;4.90;;;28.20;49.90;;;;;;5035397;28;20436;-92
2022/07/13 12:24:49;;;;;;;8.85;5.53;;;28.50;50.40;;;;;;5052410;28;20647;-92
2022/07/13 12:27:25;;;;;;;10.80;5.85;;;28.60;50.10;;;;;;5053035;28;20177;-92
2022/07/13 12:29:52;;;;;;;12.77;6.15;;;27.70;53.10;;;;;;5036927;28;20168;-92
2022/07/13 12:32:17;;;;;;;10.48;6.10;;;27.90;52.70;;;;;;5036797;28;20220;-92
2022/07/13 12:34:52;;;;;;;9.27;6.43;;;28.40;52.10;;;;;;5037859;28;20658;-92
2022/07/13 12:37:36;;;;;;;5.88;5.28;;;28.40;50.20;;;;;;5052773;28;20207;-92
2022/07/13 12:40:03;;;;;;;10.05;5.70;;;28.50;49.90;;;;;;5051474;28;20185;-91
2022/07/13 12:42:29;;;;;;;8.15;6.30;;;27.60;50.70;;;;;;5051642;28;20631;-91
2022/07/13 12:44:55;;;;;;;6.90;4.93;;;27.70;50.90;;;;;;5051252;28;20169;-91
2022/07/13 12:47:24;;;;;;;9.30;6.55;;;27.70;51.90;;;;;;5051719;28;20177;-91
2022/07/13 12:49:50;;;;;;;6.68;5.75;;;27.30;51.70;;;;;;5052098;28;20211;-92
2022/07/13 12:52:19;;;;;;;10.02;7.00;;;27.30;50.90;;;;;;5051265;28;20569;-91
2022/07/13 12:54:50;;;;;;;6.13;5.53;;;27.00;52.30;;;;;;5035756;28;20169;-92
2022/07/13 12:57:24;;;;;;;8.68;6.82;;;27.20;53.20;;;;;;5051669;28;20181;-91